Alamo Heights, Texas
Current Conditions -  °F | °C
As of 5:51 AM on Monday 20 Oct 2014 (Local Time) from KSAT Reporting Station
Broken Clouds Broken Clouds  
Wind Chill: 67°   Ceiling: 22000
Heat Index: 67°   Visibility: 10mi
Dew Point: 63°   Wind: 3mph
Humidity: 87%   Direction: 80°E
Pressure: 30.02"   Gusts: NA
Location:  29.4797°N, 98.4508°W
Report Text: KSAT 201051Z 08003KT 10SM FEW028 SCT055 BKN220 19/17 A3002 RMK AO2 SLP150 T01940172
Loading
Personal Weather Stations






























Interactive Weather Map New forecast layout! Learn more

10-Day Weather Forecast

Advertisements
Track Severe Weather on mobile